createdAt,value
2018-07-13T14:40:00.823Z,6.47
2018-07-13T14:42:29.429Z,7.83
2018-07-13T14:44:57.943Z,6.10
2018-07-13T14:47:26.447Z,6.27
2018-07-13T14:49:54.972Z,6.13
2018-07-13T14:52:23.467Z,6.87
2018-07-13T14:54:51.969Z,7.23
2018-07-13T14:57:20.519Z,7.90
2018-07-13T14:59:49.506Z,6.13
2018-07-13T15:02:17.985Z,8.30
2018-07-13T15:04:47.610Z,6.10
2018-07-13T15:07:16.470Z,6.17
2018-07-13T15:09:44.942Z,8.27
2018-07-13T15:12:13.471Z,6.27
2018-07-13T15:14:41.996Z,5.93
2018-07-13T15:17:12.195Z,5.20
2018-07-13T15:19:40.702Z,9.83
2018-07-13T15:22:09.197Z,7.30
2018-07-13T15:24:37.729Z,6.60
2018-07-13T15:27:06.996Z,7.17
2018-07-13T15:29:35.733Z,5.60
2018-07-13T15:32:04.351Z,6.50
2018-07-13T15:34:32.866Z,12.73
2018-07-13T15:37:01.526Z,4.97
2018-07-13T15:39:30.064Z,5.73
2018-07-13T15:41:58.583Z,12.83
2018-07-13T15:44:27.100Z,7.83
2018-07-13T15:46:55.601Z,7.30
2018-07-13T15:49:24.135Z,7.13
2018-07-13T15:51:52.827Z,5.43
2018-07-13T15:54:21.390Z,6.20
2018-07-13T15:56:50.125Z,6.97
2018-07-13T15:59:18.644Z,5.90
2018-07-13T16:01:47.504Z,6.00
2018-07-13T16:04:16.026Z,5.80
2018-07-13T16:06:44.631Z,6.90
2018-07-13T16:09:13.198Z,5.00
2018-07-13T16:11:41.696Z,6.70
2018-07-13T16:14:10.147Z,4.37
2018-07-13T16:16:38.654Z,4.00
2018-07-13T16:19:08.447Z,4.30
2018-07-13T16:21:37.386Z,5.10
2018-07-13T16:24:05.882Z,4.23
2018-07-13T16:26:34.366Z,4.20
2018-07-13T16:29:02.902Z,5.20
2018-07-13T16:31:31.141Z,5.87
2018-07-13T16:33:59.631Z,5.57
2018-07-13T16:36:28.285Z,6.57
2018-07-13T16:38:56.762Z,6.10
2018-07-13T16:41:25.288Z,10.97
2018-07-13T16:43:53.759Z,8.97
2018-07-13T16:46:22.311Z,9.10
2018-07-13T16:48:50.802Z,7.83
2018-07-13T16:51:19.324Z,6.93
2018-07-13T16:53:47.862Z,5.20
2018-07-13T16:56:16.358Z,5.23
2018-07-13T16:58:45.083Z,6.20
2018-07-13T17:01:13.981Z,7.20
2018-07-13T17:03:42.487Z,10.50
2018-07-13T17:06:10.995Z,5.83
2018-07-13T17:08:40.020Z,8.30
2018-07-13T17:11:08.562Z,4.50
2018-07-13T17:13:37.102Z,7.60
2018-07-13T17:16:05.876Z,4.70
2018-07-13T17:18:34.412Z,5.37
2018-07-13T17:21:02.951Z,6.00
2018-07-13T17:23:31.498Z,4.70
2018-07-13T17:26:00.431Z,5.97
2018-07-13T17:28:28.965Z,7.20
2018-07-13T17:30:57.529Z,6.77
2018-07-13T17:33:26.562Z,4.80
2018-07-13T17:35:55.048Z,5.67
2018-07-13T17:38:23.548Z,7.23
2018-07-13T17:40:52.335Z,7.77
2018-07-13T17:43:20.917Z,6.97
2018-07-13T17:45:49.415Z,9.60
2018-07-13T17:48:17.933Z,11.83
2018-07-13T17:50:47.330Z,5.40
2018-07-13T17:53:15.857Z,5.70
2018-07-13T17:55:44.694Z,7.30
2018-07-13T17:58:13.191Z,9.43
2018-07-13T18:00:41.752Z,6.23
2018-07-13T18:03:10.445Z,8.07
2018-07-13T18:05:38.969Z,8.30
2018-07-13T18:08:07.546Z,8.57
2018-07-13T18:10:36.074Z,6.17
2018-07-13T18:13:04.587Z,9.63
2018-07-13T18:15:33.152Z,9.40
2018-07-13T18:18:03.290Z,10.63
2018-07-13T18:20:33.995Z,5.17
2018-07-13T18:23:02.502Z,6.07
2018-07-13T18:25:31.016Z,6.50
2018-07-13T18:27:59.818Z,6.10
2018-07-13T18:30:28.300Z,10.10
2018-07-13T18:32:56.901Z,9.03
2018-07-13T18:35:25.373Z,13.57
2018-07-13T18:37:53.875Z,14.50
2018-07-13T18:40:22.410Z,18.07
2018-07-13T18:42:50.891Z,6.50
2018-07-13T18:45:19.451Z,10.30
2018-07-13T18:47:47.960Z,10.97
2018-07-13T18:50:16.486Z,11.63
2018-07-13T18:52:45.015Z,10.60
2018-07-13T18:55:13.537Z,17.20
2018-07-13T18:57:42.151Z,37.63
2018-07-13T19:00:10.683Z,34.40
2018-07-13T19:02:39.284Z,54.17
2018-07-13T19:05:07.832Z,37.87
2018-07-13T19:07:42.939Z,15.93
2018-07-13T19:10:11.455Z,15.07
2018-07-13T19:12:39.979Z,11.50
2018-07-13T19:15:08.628Z,14.13
2018-07-13T19:17:37.134Z,45.70
2018-07-13T19:20:06.314Z,26.60
2018-07-13T19:22:34.835Z,22.83
2018-07-13T19:25:03.429Z,12.30
2018-07-13T19:27:32.222Z,10.70
2018-07-13T19:30:00.694Z,11.87
2018-07-13T19:32:29.202Z,12.80
2018-07-13T19:34:57.709Z,17.50
2018-07-13T19:37:26.254Z,16.07
2018-07-13T19:39:54.819Z,29.20
2018-07-13T19:42:23.560Z,20.30
2018-07-13T19:44:52.619Z,30.43
2018-07-13T19:47:21.841Z,30.63
2018-07-13T19:49:50.416Z,26.57
2018-07-13T19:52:18.946Z,28.63
2018-07-13T19:54:47.213Z,33.00
2018-07-13T19:57:15.881Z,39.47
2018-07-13T19:59:44.287Z,50.43
2018-07-13T20:02:12.797Z,33.43
2018-07-13T20:04:41.452Z,15.07
2018-07-13T20:07:09.979Z,18.17
2018-07-13T20:09:38.687Z,50.47
2018-07-13T20:12:07.699Z,108.73
2018-07-13T20:14:36.237Z,128.50
2018-07-13T20:17:05.183Z,80.93
2018-07-13T20:19:33.771Z,43.53
2018-07-13T20:22:02.360Z,54.93
2018-07-13T20:24:30.909Z,27.57
2018-07-13T20:26:59.482Z,31.27
2018-07-13T20:29:28.103Z,13.10
2018-07-13T20:31:58.518Z,11.10
2018-07-13T20:34:28.420Z,17.97
2018-07-13T20:36:56.995Z,11.57
2018-07-13T20:39:25.636Z,40.47
2018-07-13T20:41:54.325Z,18.17
2018-07-13T20:44:22.947Z,48.13
2018-07-13T20:46:51.536Z,57.67
2018-07-13T20:49:20.243Z,40.47
2018-07-13T20:51:48.810Z,87.10
2018-07-13T20:54:17.624Z,15.47
2018-07-13T20:56:46.424Z,16.60
2018-07-13T20:59:14.647Z,17.43
2018-07-13T21:01:43.479Z,17.13
2018-07-13T21:04:12.053Z,14.63
2018-07-13T21:06:40.659Z,10.33
2018-07-13T21:09:09.164Z,11.83
2018-07-13T21:11:37.724Z,10.77
2018-07-13T21:14:05.924Z,10.77
2018-07-13T21:16:34.517Z,9.83
2018-07-13T21:19:03.091Z,8.77
2018-07-13T21:21:31.701Z,16.07
2018-07-13T21:24:00.854Z,12.50
2018-07-13T21:26:29.410Z,17.63
2018-07-13T21:28:58.154Z,45.37
2018-07-13T21:31:33.323Z,18.27
2018-07-13T21:34:01.815Z,12.87
2018-07-13T21:36:30.331Z,18.57
2018-07-13T21:38:58.956Z,10.10
2018-07-13T21:41:27.445Z,9.73
2018-07-13T21:43:55.957Z,21.63
2018-07-13T21:46:24.471Z,13.47
2018-07-13T21:48:54.403Z,11.07
2018-07-13T21:51:22.918Z,9.87
2018-07-13T21:53:51.550Z,12.20
2018-07-13T21:56:20.194Z,18.37
2018-07-13T21:58:48.771Z,41.27
2018-07-13T22:01:17.280Z,20.67
2018-07-13T22:03:45.807Z,9.63
2018-07-13T22:06:14.298Z,12.33
2018-07-13T22:08:42.814Z,18.07
2018-07-13T22:11:11.329Z,10.40
2018-07-13T22:13:39.866Z,14.30
2018-07-13T22:16:08.391Z,72.70
2018-07-13T22:18:37.401Z,60.60
2018-07-13T22:21:05.959Z,33.03
2018-07-13T22:23:34.491Z,179.23
2018-07-13T22:26:03.023Z,98.97
2018-07-13T22:28:31.828Z,103.80
2018-07-13T22:31:00.961Z,207.77
2018-07-13T22:33:29.482Z,128.00
2018-07-13T22:35:57.643Z,18.97
2018-07-13T22:38:26.140Z,13.57
2018-07-13T22:40:54.630Z,10.40
2018-07-13T22:43:23.138Z,15.37
2018-07-13T22:45:52.295Z,62.90
2018-07-13T22:48:20.842Z,94.80
2018-07-13T22:50:49.387Z,313.07
2018-07-13T22:53:17.930Z,167.23
2018-07-13T22:55:46.410Z,54.37
2018-07-13T22:58:14.945Z,23.63
2018-07-13T23:00:43.446Z,18.57
2018-07-13T23:03:12.194Z,15.10
2018-07-13T23:05:40.714Z,13.23
2018-07-13T23:08:09.207Z,43.83
2018-07-13T23:10:37.790Z,29.27
2018-07-13T23:13:06.286Z,21.23
2018-07-13T23:15:34.794Z,15.73
2018-07-13T23:18:03.278Z,25.13
2018-07-13T23:20:31.802Z,43.73
2018-07-13T23:23:00.324Z,46.07
2018-07-13T23:25:29.260Z,24.73
2018-07-13T23:27:57.949Z,106.90
2018-07-13T23:30:27.426Z,99.80
2018-07-13T23:32:55.889Z,135.13
2018-07-13T23:35:24.410Z,56.63
2018-07-13T23:37:53.042Z,177.60
2018-07-13T23:40:21.785Z,55.13
2018-07-13T23:42:50.259Z,66.03
2018-07-13T23:45:19.406Z,45.10
2018-07-13T23:47:47.862Z,29.80
2018-07-13T23:50:16.370Z,27.23
2018-07-13T23:52:44.863Z,63.43
2018-07-13T23:55:13.365Z,29.23
2018-07-13T23:57:41.869Z,74.27
